Cherrygrove, North Carolina
Current Conditions -  °F | °C
As of 8:55 PM on Monday 20 Oct 2014 (Local Time) from KSIF Reporting Station
Broken Clouds Broken Clouds  
Wind Chill: 58°   Ceiling: 11000
Heat Index: 58°   Visibility: 10mi
Dew Point: 51°   Wind: 0mph
Humidity: 77%   Direction: NA
Pressure: 29.97"   Gusts: NA
Location:  36.3355°N, 79.6561°W
Report Text: KSIF 210055Z AUTO 00000KT 10SM BKN110 15/11 A2997 RMK AO2 T01450106
Loading
Personal Weather Stations






























Interactive Weather Map
Tropical Storm Tracking
New forecast layout! Learn more

10-Day Weather Forecast

Advertisements
Track Severe Weather on mobile